createdAt,value
2018-08-12T00:00:22.038Z,18.70
2018-08-12T00:02:50.224Z,18.80
2018-08-12T00:05:18.666Z,18.70
2018-08-12T00:07:47.119Z,18.60
2018-08-12T00:10:15.306Z,18.60
2018-08-12T00:12:43.510Z,18.50
2018-08-12T00:15:13.640Z,18.60
2018-08-12T00:17:41.913Z,18.90
2018-08-12T00:20:29.068Z,18.80
2018-08-12T00:22:57.298Z,18.60
2018-08-12T00:25:25.491Z,18.60
2018-08-12T00:27:53.716Z,18.60
2018-08-12T00:30:22.293Z,18.70
2018-08-12T00:32:50.498Z,18.80
2018-08-12T00:35:19.831Z,18.70
2018-08-12T00:37:48.153Z,18.60
2018-08-12T00:40:17.365Z,18.50
2018-08-12T00:42:45.937Z,18.60
2018-08-12T00:45:19.271Z,18.50
2018-08-12T00:47:48.012Z,18.30
2018-08-12T00:50:16.954Z,18.40
2018-08-12T00:52:45.177Z,18.60
2018-08-12T00:55:15.592Z,19.10
2018-08-12T00:57:44.737Z,19.30
2018-08-12T01:00:14.977Z,19.40
2018-08-12T01:02:43.207Z,19.60
2018-08-12T01:05:13.422Z,19.60
2018-08-12T01:07:42.614Z,19.50
2018-08-12T01:10:11.674Z,19.30
2018-08-12T01:12:41.633Z,18.70
2018-08-12T01:15:14.858Z,18.50
2018-08-12T01:17:43.522Z,18.30
2018-08-12T01:20:15.746Z,18.20
2018-08-12T01:22:43.942Z,18.50
2018-08-12T01:25:12.206Z,18.50
2018-08-12T01:27:40.455Z,18.30
2018-08-12T01:30:10.834Z,18.60
2018-08-12T01:32:39.037Z,18.20
2018-08-12T01:35:08.357Z,18.00
2018-08-12T01:37:36.569Z,18.00
2018-08-12T01:40:06.222Z,17.90
2018-08-12T01:42:34.517Z,17.80
2018-08-12T01:45:02.696Z,17.90
2018-08-12T01:47:30.898Z,18.00
2018-08-12T01:49:59.073Z,18.30
2018-08-12T01:52:27.726Z,18.10
2018-08-12T01:54:56.312Z,18.30
2018-08-12T01:57:24.560Z,18.30
2018-08-12T01:59:52.749Z,18.50
2018-08-12T02:02:20.949Z,18.70
2018-08-12T02:04:49.201Z,18.80
2018-08-12T02:07:17.442Z,18.80
2018-08-12T02:09:46.046Z,18.70
2018-08-12T02:12:14.245Z,18.60
2018-08-12T02:14:42.438Z,18.60
2018-08-12T02:17:11.163Z,18.60
2018-08-12T02:19:39.385Z,18.70
2018-08-12T02:22:07.600Z,18.80
2018-08-12T02:24:35.777Z,18.60
2018-08-12T02:27:04.106Z,18.60
2018-08-12T02:29:32.389Z,18.50
2018-08-12T02:32:00.573Z,18.40
2018-08-12T02:34:28.774Z,18.50
2018-08-12T02:36:57.094Z,18.40
2018-08-12T02:39:25.411Z,18.40
2018-08-12T02:41:53.581Z,18.30
2018-08-12T02:44:21.758Z,18.10
2018-08-12T02:46:49.924Z,17.90
2018-08-12T02:49:18.192Z,17.90
2018-08-12T02:51:46.373Z,17.70
2018-08-12T02:54:14.925Z,17.40
2018-08-12T02:56:43.101Z,17.30
2018-08-12T02:59:11.409Z,17.10
2018-08-12T03:01:39.598Z,16.90
2018-08-12T03:04:07.785Z,16.80
2018-08-12T03:06:35.977Z,16.70
2018-08-12T03:09:07.550Z,16.80
2018-08-12T03:11:35.753Z,16.70
2018-08-12T03:14:04.946Z,16.80
2018-08-12T03:16:33.140Z,16.70
2018-08-12T03:19:01.346Z,16.40
2018-08-12T03:21:29.553Z,16.40
2018-08-12T03:23:57.825Z,16.70
2018-08-12T03:26:26.030Z,16.90
2018-08-12T03:28:54.317Z,16.70
2018-08-12T03:31:22.561Z,16.70
2018-08-12T03:33:50.763Z,16.50
2018-08-12T03:36:19.065Z,16.50
2018-08-12T03:38:47.478Z,16.50
2018-08-12T03:41:15.668Z,16.40
2018-08-12T03:43:43.870Z,16.40
2018-08-12T03:46:12.221Z,16.90
2018-08-12T03:48:40.495Z,17.00
2018-08-12T03:51:08.687Z,17.20
2018-08-12T03:53:36.873Z,17.10
2018-08-12T03:56:05.102Z,17.50
2018-08-12T03:58:33.326Z,17.50
2018-08-12T04:01:01.525Z,17.40
2018-08-12T04:03:29.728Z,17.40
2018-08-12T04:05:57.928Z,17.40
2018-08-12T04:08:26.198Z,17.40
2018-08-12T04:10:54.492Z,17.50
2018-08-12T04:13:22.666Z,17.40
2018-08-12T04:15:50.985Z,17.40
2018-08-12T04:18:19.300Z,17.40
2018-08-12T04:20:47.529Z,17.50
2018-08-12T04:23:15.709Z,17.50
2018-08-12T04:25:43.894Z,17.50
2018-08-12T04:28:12.286Z,17.30
2018-08-12T04:30:40.513Z,17.50
2018-08-12T04:33:08.680Z,17.60
2018-08-12T04:35:36.873Z,17.40
2018-08-12T04:38:05.125Z,17.30
2018-08-12T04:40:33.574Z,17.30
2018-08-12T04:43:01.894Z,17.40
2018-08-12T04:45:30.114Z,17.20
2018-08-12T04:47:58.308Z,17.30
2018-08-12T04:50:26.577Z,17.40
2018-08-12T04:52:54.868Z,17.50
2018-08-12T04:55:23.122Z,17.30
2018-08-12T04:57:51.334Z,17.20
2018-08-12T05:00:19.546Z,17.30
2018-08-12T05:02:47.758Z,17.40
2018-08-12T05:05:15.929Z,17.30
2018-08-12T05:07:44.113Z,17.30
2018-08-12T05:10:12.304Z,17.40
2018-08-12T05:12:40.597Z,17.40
2018-08-12T05:15:09.768Z,17.40
2018-08-12T05:17:37.985Z,17.30
2018-08-12T05:20:06.505Z,17.50
2018-08-12T05:22:34.708Z,17.60
2018-08-12T05:25:03.082Z,17.60
2018-08-12T05:27:31.253Z,17.70
2018-08-12T05:29:59.499Z,18.00
2018-08-12T05:32:27.672Z,17.90
2018-08-12T05:34:55.936Z,18.00
2018-08-12T05:37:24.191Z,18.10
2018-08-12T05:39:52.425Z,18.20
2018-08-12T05:42:20.601Z,18.20
2018-08-12T05:44:48.929Z,18.10
2018-08-12T05:47:17.197Z,18.00
2018-08-12T05:49:45.524Z,18.20
2018-08-12T05:52:13.714Z,18.20
2018-08-12T05:54:41.989Z,18.20
2018-08-12T05:57:10.481Z,18.20
2018-08-12T05:59:38.773Z,18.30
2018-08-12T06:02:07.155Z,18.40
2018-08-12T06:04:35.371Z,18.50
2018-08-12T06:07:03.733Z,18.70
2018-08-12T06:09:32.285Z,18.90
2018-08-12T06:12:00.481Z,19.00
2018-08-12T06:14:28.668Z,19.10
2018-08-12T06:16:57.009Z,19.30
2018-08-12T06:19:25.308Z,19.50
2018-08-12T06:21:53.477Z,19.50
2018-08-12T06:24:21.697Z,19.60
2018-08-12T06:26:49.897Z,19.50
2018-08-12T06:29:18.109Z,19.60
2018-08-12T06:31:46.322Z,19.90
2018-08-12T06:34:14.550Z,20.10
2018-08-12T06:36:42.730Z,20.20
2018-08-12T06:39:11.975Z,20.50
2018-08-12T06:41:40.194Z,20.80
2018-08-12T06:44:08.403Z,20.90
2018-08-12T06:46:36.973Z,21.30
2018-08-12T06:49:05.217Z,21.40
2018-08-12T06:51:33.594Z,21.60
2018-08-12T06:54:01.790Z,21.70
2018-08-12T06:56:30.054Z,21.90
2018-08-12T06:58:58.235Z,22.00
2018-08-12T07:01:26.542Z,22.10
2018-08-12T07:03:54.752Z,22.30
2018-08-12T07:06:23.191Z,22.50
2018-08-12T07:08:51.450Z,22.70
2018-08-12T07:11:19.949Z,22.90
2018-08-12T07:13:48.213Z,23.10
2018-08-12T07:16:16.432Z,23.30
2018-08-12T07:18:44.633Z,23.70
2018-08-12T07:21:12.821Z,24.40
2018-08-12T07:23:41.132Z,25.30
2018-08-12T07:26:09.380Z,26.10
2018-08-12T07:28:37.562Z,26.60
2018-08-12T07:31:05.798Z,27.00
2018-08-12T07:33:34.175Z,27.40
2018-08-12T07:36:02.467Z,27.90
2018-08-12T07:38:30.726Z,28.60
2018-08-12T07:40:59.712Z,29.30
2018-08-12T07:43:29.640Z,29.80
2018-08-12T07:46:00.482Z,30.30
2018-08-12T07:48:31.218Z,30.80
2018-08-12T07:50:59.399Z,31.90
2018-08-12T07:53:27.652Z,33.00
2018-08-12T07:55:55.928Z,33.70
2018-08-12T07:58:24.185Z,34.40
2018-08-12T08:00:52.414Z,35.80
2018-08-12T08:03:20.625Z,36.70
2018-08-12T08:05:48.886Z,37.20
2018-08-12T08:08:17.089Z,38.10
2018-08-12T08:10:45.303Z,38.90
2018-08-12T08:13:13.523Z,39.50
2018-08-12T08:15:41.809Z,40.10
2018-08-12T08:18:10.241Z,41.00
2018-08-12T08:23:41.386Z,41.70
2018-08-12T08:26:09.574Z,42.20
2018-08-12T08:28:37.867Z,42.90
2018-08-12T08:31:06.415Z,43.20
2018-08-12T08:33:35.426Z,44.10
2018-08-12T08:36:03.665Z,44.60
2018-08-12T08:38:31.923Z,45.20
2018-08-12T08:41:00.190Z,45.90
2018-08-12T08:43:28.392Z,46.20
2018-08-12T08:45:56.729Z,46.80
2018-08-12T08:48:24.943Z,47.40
2018-08-12T08:50:53.299Z,46.70
2018-08-12T08:53:21.513Z,46.50
2018-08-12T08:55:50.141Z,47.20
2018-08-12T08:58:18.441Z,47.50
2018-08-12T09:00:46.730Z,47.80
2018-08-12T09:03:14.901Z,48.00
2018-08-12T09:05:43.160Z,47.20
2018-08-12T09:08:11.719Z,46.80
2018-08-12T09:10:39.798Z,47.20
2018-08-12T09:13:08.015Z,47.70
2018-08-12T09:15:36.269Z,48.70
2018-08-12T09:18:05.638Z,48.20
2018-08-12T09:20:33.970Z,48.20
2018-08-12T09:23:02.161Z,47.70
2018-08-12T09:25:30.420Z,48.00
2018-08-12T09:27:58.706Z,48.40
2018-08-12T09:30:27.539Z,50.00
2018-08-12T09:32:55.735Z,51.10
2018-08-12T09:35:23.971Z,51.20
2018-08-12T09:37:52.710Z,51.40
2018-08-12T09:40:21.226Z,48.90
2018-08-12T09:42:50.046Z,47.30
2018-08-12T09:45:19.930Z,47.20
2018-08-12T09:47:48.701Z,47.20
2018-08-12T09:50:19.043Z,47.40
2018-08-12T09:52:48.305Z,47.40
2018-08-12T09:55:16.938Z,46.90
2018-08-12T09:57:45.233Z,46.70
2018-08-12T10:00:22.432Z,46.60
2018-08-12T10:02:52.154Z,46.20
2018-08-12T10:05:20.437Z,46.40
2018-08-12T10:07:49.034Z,47.20
2018-08-12T10:10:17.796Z,48.80
2018-08-12T10:12:46.448Z,50.70
2018-08-12T10:15:15.403Z,52.30
2018-08-12T10:17:45.449Z,52.70
2018-08-12T10:20:13.630Z,52.30
2018-08-12T10:22:41.972Z,52.90
2018-08-12T10:25:11.295Z,53.80
2018-08-12T10:51:00.903Z,52.90
2018-08-12T10:53:29.093Z,52.60
2018-08-12T10:55:57.508Z,52.30
2018-08-12T10:58:25.746Z,53.20
2018-08-12T11:00:53.950Z,54.00
2018-08-12T11:03:22.310Z,54.90
2018-08-12T11:05:51.085Z,54.30
2018-08-12T11:08:19.261Z,55.20
2018-08-12T11:10:47.716Z,55.70
2018-08-12T11:13:22.903Z,54.80
2018-08-12T11:15:51.170Z,55.70
2018-08-12T11:18:19.609Z,55.30
2018-08-12T11:20:47.786Z,55.10
2018-08-12T11:23:15.962Z,52.80
2018-08-12T11:25:44.887Z,53.60
2018-08-12T11:28:13.079Z,53.80
2018-08-12T11:30:41.822Z,54.10
2018-08-12T11:33:10.786Z,54.80
2018-08-12T11:35:38.983Z,55.30
2018-08-12T11:38:07.189Z,56.00
2018-08-12T11:40:35.468Z,56.70
2018-08-12T11:43:03.689Z,57.70
2018-08-12T11:45:31.863Z,58.70
2018-08-12T11:48:00.091Z,59.20
2018-08-12T11:50:28.261Z,58.40
2018-08-12T11:52:57.095Z,58.50
2018-08-12T11:55:25.426Z,59.10
2018-08-12T11:57:54.089Z,60.00
2018-08-12T12:00:22.297Z,59.40
2018-08-12T12:02:51.709Z,58.20
2018-08-12T12:05:19.893Z,58.20
2018-08-12T12:07:48.711Z,58.20
2018-08-12T12:10:18.867Z,58.90
2018-08-12T12:12:48.169Z,57.40
2018-08-12T12:15:16.855Z,55.70
2018-08-12T12:17:45.549Z,52.90
2018-08-12T12:20:14.347Z,51.60
2018-08-12T12:22:43.260Z,51.80
2018-08-12T12:25:13.205Z,53.30
2018-08-12T12:27:42.266Z,54.70
2018-08-12T12:30:19.041Z,55.50
2018-08-12T12:32:48.085Z,56.50
2018-08-12T12:35:16.272Z,57.70
2018-08-12T12:37:46.267Z,58.30
2018-08-12T12:40:15.801Z,58.90
2018-08-12T12:42:44.616Z,57.60
2018-08-12T12:45:13.599Z,57.00
2018-08-12T12:47:42.396Z,56.50
2018-08-12T12:50:13.748Z,56.10
2018-08-12T12:52:42.215Z,55.50
2018-08-12T12:55:10.702Z,56.10
2018-08-12T12:57:38.914Z,55.20
2018-08-12T13:00:09.417Z,53.20
2018-08-12T13:02:37.638Z,52.60
2018-08-12T13:05:08.391Z,52.60
2018-08-12T13:07:37.189Z,51.70
2018-08-12T13:10:05.807Z,50.50
2018-08-12T13:12:34.339Z,48.70
2018-08-12T13:15:02.587Z,47.40
2018-08-12T13:17:30.833Z,45.10
2018-08-12T13:19:59.012Z,43.20
2018-08-12T13:22:27.446Z,42.00
2018-08-12T13:24:55.758Z,41.20
2018-08-12T13:27:24.049Z,40.80
2018-08-12T13:29:52.521Z,40.30
2018-08-12T13:32:20.707Z,39.90
2018-08-12T13:34:49.072Z,39.00
2018-08-12T13:37:17.559Z,38.10
2018-08-12T13:39:45.755Z,38.00
2018-08-12T13:42:13.950Z,38.00
2018-08-12T13:44:42.360Z,37.50
2018-08-12T13:47:10.969Z,37.10
2018-08-12T13:49:39.151Z,36.40
2018-08-12T13:52:07.409Z,36.10
2018-08-12T13:54:35.735Z,35.80
2018-08-12T13:57:04.409Z,36.80
2018-08-12T13:59:32.684Z,39.00
2018-08-12T14:02:00.913Z,40.00
2018-08-12T14:04:29.134Z,39.80
2018-08-12T14:06:58.089Z,39.00
2018-08-12T14:09:26.435Z,38.60
2018-08-12T14:11:54.630Z,38.50
2018-08-12T14:14:22.971Z,38.30
2018-08-12T14:16:51.157Z,39.00
2018-08-12T14:19:19.505Z,41.20
2018-08-12T14:21:48.366Z,43.70
2018-08-12T14:24:16.636Z,46.30
2018-08-12T14:26:44.858Z,47.80
2018-08-12T14:29:13.033Z,49.30
2018-08-12T14:31:41.298Z,49.30
2018-08-12T14:34:09.490Z,49.20
2018-08-12T14:36:37.734Z,48.70
2018-08-12T14:39:08.140Z,48.20
2018-08-12T14:41:36.414Z,48.00
2018-08-12T14:44:05.130Z,47.30
2018-08-12T14:46:33.701Z,46.90
2018-08-12T14:49:01.974Z,46.20
2018-08-12T14:51:30.318Z,45.80
2018-08-12T14:53:58.608Z,46.50
2018-08-12T14:56:27.042Z,47.40
2018-08-12T14:58:55.803Z,47.90
2018-08-12T15:01:24.112Z,48.60
2018-08-12T15:03:52.518Z,48.90
2018-08-12T15:06:20.738Z,49.30
2018-08-12T15:08:49.127Z,49.20
2018-08-12T15:11:17.454Z,49.60
2018-08-12T15:13:45.988Z,49.60
2018-08-12T15:16:14.290Z,49.60
2018-08-12T15:18:42.691Z,49.80
2018-08-12T15:21:11.013Z,49.30
2018-08-12T15:23:39.321Z,48.80
2018-08-12T15:26:07.954Z,47.80
2018-08-12T15:28:36.294Z,47.10
2018-08-12T15:31:04.684Z,46.80
2018-08-12T15:33:33.279Z,46.70
2018-08-12T15:36:01.608Z,46.30
2018-08-12T15:38:29.897Z,46.20
2018-08-12T15:40:58.109Z,45.40
2018-08-12T15:43:26.443Z,45.00
2018-08-12T15:45:54.676Z,45.00
2018-08-12T15:48:22.969Z,45.20
2018-08-12T15:50:51.332Z,45.20
2018-08-12T15:53:19.699Z,45.50
2018-08-12T15:55:47.987Z,45.60
2018-08-12T15:58:16.230Z,45.30
2018-08-12T16:00:44.485Z,45.00
2018-08-12T16:03:12.681Z,45.00
2018-08-12T16:05:41.116Z,45.00
2018-08-12T16:08:09.407Z,45.50
2018-08-12T16:10:37.729Z,44.50
2018-08-12T16:13:06.090Z,44.90
2018-08-12T16:15:34.354Z,45.20
2018-08-12T16:18:02.618Z,45.30
2018-08-12T16:20:30.869Z,45.50
2018-08-12T16:22:59.319Z,45.20
2018-08-12T16:25:27.969Z,44.40
2018-08-12T16:27:56.355Z,43.40
2018-08-12T16:30:24.660Z,42.70
2018-08-12T16:32:52.944Z,42.30
2018-08-12T16:35:21.275Z,41.90
2018-08-12T16:37:49.574Z,41.70
2018-08-12T16:40:19.635Z,41.80
2018-08-12T16:42:48.395Z,41.20
2018-08-12T16:45:18.242Z,40.70
2018-08-12T16:47:47.210Z,40.40
2018-08-12T16:50:15.458Z,40.10
2018-08-12T16:52:44.693Z,39.60
2018-08-12T16:55:14.753Z,39.60
2018-08-12T16:58:14.339Z,39.50
2018-08-12T17:00:45.944Z,39.20
2018-08-12T17:03:14.185Z,38.40
2018-08-12T17:05:42.497Z,37.10
2018-08-12T17:08:10.717Z,36.20
2018-08-12T17:10:40.015Z,34.90
2018-08-12T17:13:08.276Z,34.40
2018-08-12T17:15:36.479Z,34.00
2018-08-12T17:18:04.856Z,33.60
2018-08-12T17:20:33.011Z,33.30
2018-08-12T17:23:33.041Z,32.80
2018-08-12T17:26:02.649Z,32.70
2018-08-12T17:28:30.935Z,32.80
2018-08-12T17:30:59.153Z,32.80
2018-08-12T17:33:27.399Z,32.80
2018-08-12T17:35:55.844Z,32.80
2018-08-12T17:38:24.312Z,32.80
2018-08-12T17:40:52.546Z,32.80
2018-08-12T17:43:20.824Z,32.80
2018-08-12T17:45:49.069Z,32.80
2018-08-12T17:48:17.320Z,32.80
2018-08-12T17:50:45.466Z,32.90
2018-08-12T17:53:13.694Z,32.80
2018-08-12T17:55:42.046Z,32.80
2018-08-12T17:58:10.275Z,32.70
2018-08-12T18:00:38.519Z,32.60
2018-08-12T18:03:07.010Z,32.40
2018-08-12T18:05:35.181Z,32.30
2018-08-12T18:08:03.418Z,32.20
2018-08-12T18:10:31.847Z,32.00
2018-08-12T18:13:00.104Z,31.90
2018-08-12T18:15:28.407Z,31.90
2018-08-12T18:17:56.846Z,31.70
2018-08-12T18:20:25.103Z,31.60
2018-08-12T18:22:53.375Z,31.20
2018-08-12T18:25:22.018Z,30.90
2018-08-12T18:27:50.237Z,30.70
2018-08-12T18:30:18.451Z,30.50
2018-08-12T18:32:46.740Z,30.50
2018-08-12T18:35:14.994Z,30.20
2018-08-12T18:37:43.372Z,30.10
2018-08-12T18:40:12.535Z,29.90
2018-08-12T18:42:40.816Z,29.80
2018-08-12T18:45:09.031Z,29.60
2018-08-12T18:47:37.373Z,29.50
2018-08-12T18:50:07.289Z,29.50
2018-08-12T18:52:36.194Z,29.40
2018-08-12T18:55:06.023Z,29.30
2018-08-12T18:57:34.467Z,29.30
2018-08-12T19:00:02.670Z,29.10
2018-08-12T19:02:30.890Z,29.00
2018-08-12T19:04:59.095Z,28.80
2018-08-12T19:07:27.358Z,28.70
2018-08-12T19:09:55.769Z,28.50
2018-08-12T19:12:23.889Z,28.50
2018-08-12T19:14:52.172Z,28.40
2018-08-12T19:17:22.430Z,28.40
2018-08-12T19:19:50.631Z,28.20
2018-08-12T19:22:18.858Z,28.00
2018-08-12T19:24:47.026Z,28.10
2018-08-12T19:27:15.250Z,28.00
2018-08-12T19:29:43.417Z,27.90
2018-08-12T19:32:12.658Z,27.70
2018-08-12T19:34:41.015Z,27.50
2018-08-12T19:37:09.211Z,27.40
2018-08-12T19:39:37.445Z,27.70
2018-08-12T19:42:05.732Z,27.50
2018-08-12T19:44:34.072Z,27.30
2018-08-12T19:47:02.272Z,27.40
2018-08-12T19:49:30.539Z,27.40
2018-08-12T19:51:58.754Z,27.30
2018-08-12T19:54:26.958Z,27.20
2018-08-12T19:56:55.138Z,27.10
2018-08-12T19:59:23.303Z,26.90
2018-08-12T20:01:51.490Z,27.00
2018-08-12T20:04:19.848Z,26.90
2018-08-12T20:06:48.148Z,26.90
2018-08-12T20:09:16.370Z,27.00
2018-08-12T20:11:44.604Z,26.90
2018-08-12T20:14:12.932Z,27.00
2018-08-12T20:16:41.178Z,27.20
2018-08-12T20:19:09.392Z,26.90
2018-08-12T20:21:37.839Z,26.80
2018-08-12T20:24:06.064Z,26.80
2018-08-12T20:26:34.360Z,26.70
2018-08-12T20:29:02.666Z,26.90
2018-08-12T20:31:30.942Z,26.70
2018-08-12T20:33:59.185Z,26.80
2018-08-12T20:36:27.554Z,26.70
2018-08-12T20:38:55.822Z,26.50
2018-08-12T20:41:24.023Z,26.30
2018-08-12T20:43:52.549Z,26.20
2018-08-12T20:46:20.719Z,26.20
2018-08-12T20:48:49.096Z,26.10
2018-08-12T20:51:17.341Z,26.20
2018-08-12T20:53:45.547Z,26.40
2018-08-12T20:56:13.810Z,26.30
2018-08-12T20:58:42.191Z,26.30
2018-08-12T21:01:10.990Z,26.10
2018-08-12T21:03:39.331Z,26.20
2018-08-12T21:06:07.534Z,25.90
2018-08-12T21:08:35.731Z,25.60
2018-08-12T21:11:04.702Z,25.90
2018-08-12T21:13:32.972Z,26.20
2018-08-12T21:16:01.249Z,26.20
2018-08-12T21:18:29.477Z,26.20
2018-08-12T21:20:57.749Z,26.20
2018-08-12T21:23:26.117Z,25.90
2018-08-12T21:25:54.301Z,26.00
2018-08-12T21:28:22.534Z,26.00
2018-08-12T21:30:50.710Z,25.90
2018-08-12T21:33:19.490Z,25.50
2018-08-12T21:35:47.710Z,25.50
2018-08-12T21:38:15.951Z,25.70
2018-08-12T21:40:44.237Z,25.80
2018-08-12T21:43:12.473Z,25.80
2018-08-12T21:45:40.829Z,25.70
2018-08-12T21:48:09.073Z,25.70
2018-08-12T21:50:37.756Z,25.50
2018-08-12T21:53:06.017Z,25.50
2018-08-12T21:55:34.372Z,25.40
2018-08-12T21:58:02.621Z,25.50
2018-08-12T22:00:30.974Z,25.30
2018-08-12T22:02:59.237Z,25.40
2018-08-12T22:05:27.538Z,25.30
2018-08-12T22:07:55.779Z,25.40
2018-08-12T22:10:24.029Z,25.30
2018-08-12T22:12:52.638Z,25.30
2018-08-12T22:15:20.845Z,25.40
2018-08-12T22:17:49.897Z,25.30
2018-08-12T22:20:18.118Z,25.30
2018-08-12T22:22:46.325Z,25.40
2018-08-12T22:25:14.586Z,25.20
2018-08-12T22:27:42.949Z,25.10
2018-08-12T22:30:14.222Z,25.00
2018-08-12T22:32:42.610Z,25.00
2018-08-12T22:35:10.933Z,25.10
2018-08-12T22:37:39.196Z,25.00
2018-08-12T22:40:08.159Z,25.10
2018-08-12T22:42:36.790Z,25.00
2018-08-12T22:45:06.602Z,25.00
2018-08-12T22:47:34.966Z,24.80
2018-08-12T22:50:04.469Z,24.60
2018-08-12T22:52:32.675Z,24.80
2018-08-12T22:55:01.093Z,24.70
2018-08-12T22:57:29.417Z,24.80
2018-08-12T22:59:57.823Z,24.80
2018-08-12T23:02:26.145Z,24.60
2018-08-12T23:04:54.347Z,24.60
2018-08-12T23:07:22.918Z,24.50
2018-08-12T23:09:51.144Z,24.30
2018-08-12T23:12:19.606Z,24.30
2018-08-12T23:14:47.851Z,24.30
2018-08-12T23:17:16.290Z,24.40
2018-08-12T23:19:44.578Z,24.20
2018-08-12T23:22:13.599Z,24.30
2018-08-12T23:24:41.845Z,24.00
2018-08-12T23:27:10.174Z,23.90
2018-08-12T23:29:38.343Z,23.80
2018-08-12T23:32:06.630Z,23.90
2018-08-12T23:34:35.106Z,23.90
2018-08-12T23:37:03.755Z,23.60
2018-08-12T23:39:32.091Z,23.90
2018-08-12T23:42:00.306Z,23.90
2018-08-12T23:44:28.600Z,23.80
2018-08-12T23:46:57.047Z,23.80
2018-08-12T23:49:25.304Z,23.60
2018-08-12T23:51:53.553Z,23.40
2018-08-12T23:54:22.084Z,23.60
2018-08-12T23:56:50.386Z,23.20
2018-08-12T23:59:19.034Z,23.10
